sensor_id;sensor_type;location;lat;lon;timestamp;pressure;altitude;pressure_sealevel;temperature
59339;BMP280;45117;50.960;5.500;2022-09-09T00:01:32;100013.63;;;15.07
59339;BMP280;45117;50.960;5.500;2022-09-09T00:04:05;100010.91;;;15.07
59339;BMP280;45117;50.960;5.500;2022-09-09T00:06:43;100009.13;;;15.03
59339;BMP280;45117;50.960;5.500;2022-09-09T00:09:16;100008.63;;;15.05
59339;BMP280;45117;50.960;5.500;2022-09-09T00:11:47;100001.75;;;15.04
59339;BMP280;45117;50.960;5.500;2022-09-09T00:14:20;99997.38;;;14.97
59339;BMP280;45117;50.960;5.500;2022-09-09T00:16:53;100002.00;;;14.97
59339;BMP280;45117;50.960;5.500;2022-09-09T00:19:24;99988.34;;;14.91
59339;BMP280;45117;50.960;5.500;2022-09-09T00:22:03;100001.13;;;15.00
59339;BMP280;45117;50.960;5.500;2022-09-09T00:24:38;99989.28;;;14.97
59339;BMP280;45117;50.960;5.500;2022-09-09T00:27:11;99991.66;;;14.95
59339;BMP280;45117;50.960;5.500;2022-09-09T00:29:43;99985.31;;;14.89
59339;BMP280;45117;50.960;5.500;2022-09-09T00:32:13;99986.22;;;14.86
59339;BMP280;45117;50.960;5.500;2022-09-09T00:34:47;99986.97;;;14.87
59339;BMP280;45117;50.960;5.500;2022-09-09T00:37:15;99981.94;;;14.76
59339;BMP280;45117;50.960;5.500;2022-09-09T00:39:46;99978.97;;;14.74
59339;BMP280;45117;50.960;5.500;2022-09-09T00:42:15;99988.25;;;14.73
59339;BMP280;45117;50.960;5.500;2022-09-09T00:44:56;99977.13;;;14.71
59339;BMP280;45117;50.960;5.500;2022-09-09T00:47:43;99975.75;;;14.66
59339;BMP280;45117;50.960;5.500;2022-09-09T00:50:24;99975.44;;;14.64
59339;BMP280;45117;50.960;5.500;2022-09-09T00:53:02;99976.22;;;14.65
59339;BMP280;45117;50.960;5.500;2022-09-09T00:55:40;99974.22;;;14.56
59339;BMP280;45117;50.960;5.500;2022-09-09T00:58:09;99964.78;;;14.61
59339;BMP280;45117;50.960;5.500;2022-09-09T01:00:41;99969.09;;;14.58
59339;BMP280;45117;50.960;5.500;2022-09-09T01:03:19;99966.22;;;14.53
59339;BMP280;45117;50.960;5.500;2022-09-09T01:05:57;99970.59;;;14.59
59339;BMP280;45117;50.960;5.500;2022-09-09T01:08:37;99965.38;;;14.56
59339;BMP280;45117;50.960;5.500;2022-09-09T01:11:09;99958.44;;;14.55
59339;BMP280;45117;50.960;5.500;2022-09-09T01:13:37;99956.50;;;14.55
59339;BMP280;45117;50.960;5.500;2022-09-09T01:16:08;99954.47;;;14.47
59339;BMP280;45117;50.960;5.500;2022-09-09T01:18:40;99957.97;;;14.47
59339;BMP280;45117;50.960;5.500;2022-09-09T01:21:16;99960.84;;;14.53
59339;BMP280;45117;50.960;5.500;2022-09-09T01:24:05;99961.72;;;14.50
59339;BMP280;45117;50.960;5.500;2022-09-09T01:26:37;99967.44;;;14.52
59339;BMP280;45117;50.960;5.500;2022-09-09T01:29:07;99962.78;;;14.52
59339;BMP280;45117;50.960;5.500;2022-09-09T01:31:37;99965.03;;;14.54
59339;BMP280;45117;50.960;5.500;2022-09-09T01:34:09;99967.44;;;14.52
59339;BMP280;45117;50.960;5.500;2022-09-09T01:36:39;99962.66;;;14.56
59339;BMP280;45117;50.960;5.500;2022-09-09T01:39:07;99962.03;;;14.52
59339;BMP280;45117;50.960;5.500;2022-09-09T01:41:33;99958.88;;;14.53
59339;BMP280;45117;50.960;5.500;2022-09-09T01:44:02;99966.13;;;14.56
59339;BMP280;45117;50.960;5.500;2022-09-09T01:46:28;99958.78;;;14.57
59339;BMP280;45117;50.960;5.500;2022-09-09T01:48:57;99954.97;;;14.54
59339;BMP280;45117;50.960;5.500;2022-09-09T01:51:24;99962.03;;;14.52
59339;BMP280;45117;50.960;5.500;2022-09-09T01:53:50;99954.84;;;14.58
59339;BMP280;45117;50.960;5.500;2022-09-09T01:56:25;99957.38;;;14.52
59339;BMP280;45117;50.960;5.500;2022-09-09T01:59:04;99945.28;;;14.57
59339;BMP280;45117;50.960;5.500;2022-09-09T02:01:41;99949.44;;;14.58
59339;BMP280;45117;50.960;5.500;2022-09-09T02:04:20;99945.53;;;14.59
59339;BMP280;45117;50.960;5.500;2022-09-09T02:06:50;99941.66;;;14.60
59339;BMP280;45117;50.960;5.500;2022-09-09T02:09:23;99948.25;;;14.59
59339;BMP280;45117;50.960;5.500;2022-09-09T02:11:55;99943.31;;;14.57
59339;BMP280;45117;50.960;5.500;2022-09-09T02:14:29;99935.38;;;14.63
59339;BMP280;45117;50.960;5.500;2022-09-09T02:17:00;99940.03;;;14.62
59339;BMP280;45117;50.960;5.500;2022-09-09T02:19:31;99936.88;;;14.64
59339;BMP280;45117;50.960;5.500;2022-09-09T02:21:59;99939.28;;;14.62
59339;BMP280;45117;50.960;5.500;2022-09-09T02:24:28;99942.28;;;14.64
59339;BMP280;45117;50.960;5.500;2022-09-09T02:26:58;99940.78;;;14.63
59339;BMP280;45117;50.960;5.500;2022-09-09T02:29:31;99932.88;;;14.68
59339;BMP280;45117;50.960;5.500;2022-09-09T02:32:01;99935.56;;;14.68
59339;BMP280;45117;50.960;5.500;2022-09-09T02:34:31;99925.31;;;14.63
59339;BMP280;45117;50.960;5.500;2022-09-09T02:37:03;99924.28;;;14.70
59339;BMP280;45117;50.960;5.500;2022-09-09T02:39:30;99929.38;;;14.68
59339;BMP280;45117;50.960;5.500;2022-09-09T02:41:56;99920.09;;;14.69
59339;BMP280;45117;50.960;5.500;2022-09-09T02:44:23;99915.56;;;14.66
59339;BMP280;45117;50.960;5.500;2022-09-09T02:47:07;99919.34;;;14.68
59339;BMP280;45117;50.960;5.500;2022-09-09T02:49:42;99922.06;;;14.68
59339;BMP280;45117;50.960;5.500;2022-09-09T02:52:14;99930.91;;;14.69
59339;BMP280;45117;50.960;5.500;2022-09-09T02:54:42;99921.28;;;14.68
59339;BMP280;45117;50.960;5.500;2022-09-09T02:57:11;99931.47;;;14.64
59339;BMP280;45117;50.960;5.500;2022-09-09T02:59:39;99928.63;;;14.67
59339;BMP280;45117;50.960;5.500;2022-09-09T03:02:08;99930.72;;;14.63
59339;BMP280;45117;50.960;5.500;2022-09-09T03:04:35;99926.97;;;14.61
59339;BMP280;45117;50.960;5.500;2022-09-09T03:07:01;99927.47;;;14.68
59339;BMP280;45117;50.960;5.500;2022-09-09T03:09:28;99936.59;;;14.71
59339;BMP280;45117;50.960;5.500;2022-09-09T03:11:55;99934.34;;;14.69
59339;BMP280;45117;50.960;5.500;2022-09-09T03:14:22;99936.44;;;14.65
59339;BMP280;45117;50.960;5.500;2022-09-09T03:16:50;99937.63;;;14.64
59339;BMP280;45117;50.960;5.500;2022-09-09T03:19:18;99936.88;;;14.64
59339;BMP280;45117;50.960;5.500;2022-09-09T03:21:45;99943.94;;;14.70
59339;BMP280;45117;50.960;5.500;2022-09-09T03:24:12;99942.75;;;14.71
59339;BMP280;45117;50.960;5.500;2022-09-09T03:26:39;99943.50;;;14.72
59339;BMP280;45117;50.960;5.500;2022-09-09T03:29:06;99936.19;;;14.72
59339;BMP280;45117;50.960;5.500;2022-09-09T03:31:32;99939.34;;;14.80
59339;BMP280;45117;50.960;5.500;2022-09-09T03:33:59;99940.41;;;14.83
59339;BMP280;45117;50.960;5.500;2022-09-09T03:36:28;99935.88;;;14.80
59339;BMP280;45117;50.960;5.500;2022-09-09T03:38:54;99942.09;;;14.89
59339;BMP280;45117;50.960;5.500;2022-09-09T03:41:21;99933.19;;;14.89
59339;BMP280;45117;50.960;5.500;2022-09-09T03:43:49;99942.69;;;14.93
59339;BMP280;45117;50.960;5.500;2022-09-09T03:46:15;99944.94;;;14.95
59339;BMP280;45117;50.960;5.500;2022-09-09T03:48:42;99939.84;;;14.97
59339;BMP280;45117;50.960;5.500;2022-09-09T03:51:09;99936.38;;;14.96
59339;BMP280;45117;50.960;5.500;2022-09-09T03:53:37;99937.75;;;15.01
59339;BMP280;45117;50.960;5.500;2022-09-09T03:56:04;99939.28;;;15.02
59339;BMP280;45117;50.960;5.500;2022-09-09T03:58:32;99943.34;;;15.07
59339;BMP280;45117;50.960;5.500;2022-09-09T04:01:01;99936.41;;;15.06
59339;BMP280;45117;50.960;5.500;2022-09-09T04:03:28;99939.88;;;15.06
59339;BMP280;45117;50.960;5.500;2022-09-09T04:05:56;99933.41;;;15.03
59339;BMP280;45117;50.960;5.500;2022-09-09T04:08:23;99940.50;;;15.10
59339;BMP280;45117;50.960;5.500;2022-09-09T04:10:52;99931.16;;;15.11
59339;BMP280;45117;50.960;5.500;2022-09-09T04:13:19;99938.22;;;15.09
59339;BMP280;45117;50.960;5.500;2022-09-09T04:15:50;99932.06;;;15.08
59339;BMP280;45117;50.960;5.500;2022-09-09T04:18:17;99924.09;;;15.04
59339;BMP280;45117;50.960;5.500;2022-09-09T04:20:45;99921.53;;;15.01
59339;BMP280;45117;50.960;5.500;2022-09-09T04:23:12;99924.69;;;14.99
59339;BMP280;45117;50.960;5.500;2022-09-09T04:25:43;99917.31;;;15.00
59339;BMP280;45117;50.960;5.500;2022-09-09T04:28:11;99915.97;;;14.95
59339;BMP280;45117;50.960;5.500;2022-09-09T04:30:38;99913.59;;;14.97
59339;BMP280;45117;50.960;5.500;2022-09-09T04:33:06;99922.13;;;14.96
59339;BMP280;45117;50.960;5.500;2022-09-09T04:35:32;99921.06;;;14.93
59339;BMP280;45117;50.960;5.500;2022-09-09T04:37:59;99921.97;;;14.90
59339;BMP280;45117;50.960;5.500;2022-09-09T04:40:27;99916.88;;;14.92
59339;BMP280;45117;50.960;5.500;2022-09-09T04:42:54;99915.66;;;14.93
59339;BMP280;45117;50.960;5.500;2022-09-09T04:45:22;99920.19;;;14.96
59339;BMP280;45117;50.960;5.500;2022-09-09T04:47:49;99913.59;;;14.97
59339;BMP280;45117;50.960;5.500;2022-09-09T04:50:15;99915.09;;;14.98
59339;BMP280;45117;50.960;5.500;2022-09-09T04:52:42;99914.63;;;15.00
59339;BMP280;45117;50.960;5.500;2022-09-09T04:55:08;99919.91;;;15.03
59339;BMP280;45117;50.960;5.500;2022-09-09T04:57:35;99924.97;;;15.01
59339;BMP280;45117;50.960;5.500;2022-09-09T05:00:03;99923.34;;;15.04
59339;BMP280;45117;50.960;5.500;2022-09-09T05:02:32;99925.44;;;15.00
59339;BMP280;45117;50.960;5.500;2022-09-09T05:04:58;99923.81;;;15.02
59339;BMP280;45117;50.960;5.500;2022-09-09T05:07:26;99927.38;;;14.99
59339;BMP280;45117;50.960;5.500;2022-09-09T05:09:54;99926.94;;;15.01
59339;BMP280;45117;50.960;5.500;2022-09-09T05:12:20;99922.56;;;14.94
59339;BMP280;45117;50.960;5.500;2022-09-09T05:14:49;99926.31;;;14.97
59339;BMP280;45117;50.960;5.500;2022-09-09T05:17:15;99929.63;;;14.92
59339;BMP280;45117;50.960;5.500;2022-09-09T05:19:44;99934.88;;;14.95
59339;BMP280;45117;50.960;5.500;2022-09-09T05:22:11;99931.59;;;15.00
59339;BMP280;45117;50.960;5.500;2022-09-09T05:24:38;99935.78;;;15.01
59339;BMP280;45117;50.960;5.500;2022-09-09T05:27:04;99940.63;;;15.07
59339;BMP280;45117;50.960;5.500;2022-09-09T05:29:31;99937.34;;;15.12
59339;BMP280;45117;50.960;5.500;2022-09-09T05:31:59;99931.47;;;15.13
59339;BMP280;45117;50.960;5.500;2022-09-09T05:34:25;99935.97;;;15.16
59339;BMP280;45117;50.960;5.500;2022-09-09T05:36:53;99940.94;;;15.18
59339;BMP280;45117;50.960;5.500;2022-09-09T05:39:20;99932.41;;;15.19
59339;BMP280;45117;50.960;5.500;2022-09-09T05:41:46;99939.59;;;15.22
59339;BMP280;45117;50.960;5.500;2022-09-09T05:44:13;99934.19;;;15.22
59339;BMP280;45117;50.960;5.500;2022-09-09T05:46:39;99936.16;;;15.22
59339;BMP280;45117;50.960;5.500;2022-09-09T05:49:06;99940.06;;;15.30
59339;BMP280;45117;50.960;5.500;2022-09-09T05:51:33;99937.84;;;15.38
59339;BMP280;45117;50.960;5.500;2022-09-09T05:54:01;99936.47;;;15.42
59339;BMP280;45117;50.960;5.500;2022-09-09T05:56:28;99937.53;;;15.45
59339;BMP280;45117;50.960;5.500;2022-09-09T05:58:56;99934.97;;;15.41
59339;BMP280;45117;50.960;5.500;2022-09-09T06:01:24;99940.97;;;15.45
59339;BMP280;45117;50.960;5.500;2022-09-09T06:03:51;99934.53;;;15.43
59339;BMP280;45117;50.960;5.500;2022-09-09T06:06:20;99929.88;;;15.43
59339;BMP280;45117;50.960;5.500;2022-09-09T06:08:47;99937.06;;;15.46
59339;BMP280;45117;50.960;5.500;2022-09-09T06:11:17;99932.41;;;15.47
59339;BMP280;45117;50.960;5.500;2022-09-09T06:13:44;99936.34;;;15.55
59339;BMP280;45117;50.960;5.500;2022-09-09T06:16:12;99926.88;;;15.59
59339;BMP280;45117;50.960;5.500;2022-09-09T06:18:38;99934.41;;;15.65
59339;BMP280;45117;50.960;5.500;2022-09-09T06:21:14;99926.41;;;15.70
59339;BMP280;45117;50.960;5.500;2022-09-09T06:23:41;99928.34;;;15.79
59339;BMP280;45117;50.960;5.500;2022-09-09T06:26:10;99921.88;;;15.85
59339;BMP280;45117;50.960;5.500;2022-09-09T06:28:39;99928.81;;;15.86
59339;BMP280;45117;50.960;5.500;2022-09-09T06:31:09;99922.78;;;15.91
59339;BMP280;45117;50.960;5.500;2022-09-09T06:33:37;99927.13;;;15.98
59339;BMP280;45117;50.960;5.500;2022-09-09T06:36:07;99923.38;;;16.05
59339;BMP280;45117;50.960;5.500;2022-09-09T06:38:36;99922.06;;;16.33
59339;BMP280;45117;50.960;5.500;2022-09-09T06:41:03;99921.09;;;16.88
59339;BMP280;45117;50.960;5.500;2022-09-09T06:43:31;99925.50;;;16.76
59339;BMP280;45117;50.960;5.500;2022-09-09T06:46:00;99921.00;;;16.73
59339;BMP280;45117;50.960;5.500;2022-09-09T06:48:27;99922.78;;;19.17
59339;BMP280;45117;50.960;5.500;2022-09-09T06:51:01;99919.63;;;21.26
59339;BMP280;45117;50.960;5.500;2022-09-09T06:53:27;99923.16;;;22.69
59339;BMP280;45117;50.960;5.500;2022-09-09T06:55:54;99927.66;;;23.78
59339;BMP280;45117;50.960;5.500;2022-09-09T06:58:21;99923.00;;;24.59
59339;BMP280;45117;50.960;5.500;2022-09-09T07:00:48;99923.53;;;24.15
59339;BMP280;45117;50.960;5.500;2022-09-09T07:03:16;99930.66;;;24.85
59339;BMP280;45117;50.960;5.500;2022-09-09T07:05:42;99932.75;;;24.79
59339;BMP280;45117;50.960;5.500;2022-09-09T07:08:10;99925.88;;;22.05
59339;BMP280;45117;50.960;5.500;2022-09-09T07:10:37;99919.97;;;21.62
59339;BMP280;45117;50.960;5.500;2022-09-09T07:13:03;99915.19;;;21.35
59339;BMP280;45117;50.960;5.500;2022-09-09T07:15:30;99923.22;;;20.73
59339;BMP280;45117;50.960;5.500;2022-09-09T07:18:00;99915.94;;;20.11
59339;BMP280;45117;50.960;5.500;2022-09-09T07:20:28;99918.06;;;19.64
59339;BMP280;45117;50.960;5.500;2022-09-09T07:22:55;99921.78;;;19.41
59339;BMP280;45117;50.960;5.500;2022-09-09T07:25:24;99925.63;;;19.08
59339;BMP280;45117;50.960;5.500;2022-09-09T07:27:51;99926.53;;;18.99
59339;BMP280;45117;50.960;5.500;2022-09-09T07:30:18;99925.66;;;18.67
59339;BMP280;45117;50.960;5.500;2022-09-09T07:32:44;99929.28;;;18.44
59339;BMP280;45117;50.960;5.500;2022-09-09T07:35:11;99929.31;;;18.29
59339;BMP280;45117;50.960;5.500;2022-09-09T07:37:39;99931.09;;;18.32
59339;BMP280;45117;50.960;5.500;2022-09-09T07:40:07;99926.00;;;18.40
59339;BMP280;45117;50.960;5.500;2022-09-09T07:42:33;99923.97;;;18.35
59339;BMP280;45117;50.960;5.500;2022-09-09T07:45:00;99940.38;;;18.26
59339;BMP280;45117;50.960;5.500;2022-09-09T07:47:27;99925.19;;;18.34
59339;BMP280;45117;50.960;5.500;2022-09-09T07:49:53;99926.19;;;18.51
59339;BMP280;45117;50.960;5.500;2022-09-09T07:52:21;99928.06;;;18.65
59339;BMP280;45117;50.960;5.500;2022-09-09T07:54:49;99920.28;;;18.73
59339;BMP280;45117;50.960;5.500;2022-09-09T07:57:15;99928.66;;;18.69
59339;BMP280;45117;50.960;5.500;2022-09-09T07:59:42;99921.97;;;18.91
59339;BMP280;45117;50.960;5.500;2022-09-09T08:02:08;99925.56;;;19.02
59339;BMP280;45117;50.960;5.500;2022-09-09T08:04:35;99932.47;;;18.78
59339;BMP280;45117;50.960;5.500;2022-09-09T08:07:01;99926.00;;;19.16
59339;BMP280;45117;50.960;5.500;2022-09-09T08:09:28;99918.22;;;19.29
59339;BMP280;45117;50.960;5.500;2022-09-09T08:11:58;99929.81;;;19.50
59339;BMP280;45117;50.960;5.500;2022-09-09T08:14:26;99934.34;;;19.12
59339;BMP280;45117;50.960;5.500;2022-09-09T08:16:52;99930.97;;;19.17
59339;BMP280;45117;50.960;5.500;2022-09-09T08:19:19;99940.78;;;19.09
59339;BMP280;45117;50.960;5.500;2022-09-09T08:21:45;99933.47;;;18.80
59339;BMP280;45117;50.960;5.500;2022-09-09T08:24:14;99926.06;;;18.60
59339;BMP280;45117;50.960;5.500;2022-09-09T08:26:44;99927.09;;;18.48
59339;BMP280;45117;50.960;5.500;2022-09-09T08:29:13;99937.81;;;18.37
59339;BMP280;45117;50.960;5.500;2022-09-09T08:31:41;99946.91;;;18.34
59339;BMP280;45117;50.960;5.500;2022-09-09T08:34:08;99943.66;;;18.30
59339;BMP280;45117;50.960;5.500;2022-09-09T08:36:37;99945.81;;;18.26
59339;BMP280;45117;50.960;5.500;2022-09-09T08:39:05;99941.50;;;18.19
59339;BMP280;45117;50.960;5.500;2022-09-09T08:42:06;99946.78;;;18.08
59339;BMP280;45117;50.960;5.500;2022-09-09T08:44:56;99949.38;;;18.02
59339;BMP280;45117;50.960;5.500;2022-09-09T08:47:33;99947.69;;;17.90
59339;BMP280;45117;50.960;5.500;2022-09-09T08:50:13;99949.50;;;17.93
59339;BMP280;45117;50.960;5.500;2022-09-09T08:52:49;99957.53;;;18.02
59339;BMP280;45117;50.960;5.500;2022-09-09T08:55:23;99943.88;;;17.97
59339;BMP280;45117;50.960;5.500;2022-09-09T08:57:53;99947.53;;;17.94
59339;BMP280;45117;50.960;5.500;2022-09-09T09:00:22;99949.50;;;17.93
59339;BMP280;45117;50.960;5.500;2022-09-09T09:02:56;99946.03;;;17.93
59339;BMP280;45117;50.960;5.500;2022-09-09T09:05:28;99956.13;;;17.77
59339;BMP280;45117;50.960;5.500;2022-09-09T09:08:06;99960.22;;;17.73
59339;BMP280;45117;50.960;5.500;2022-09-09T09:10:45;99973.81;;;17.73
59339;BMP280;45117;50.960;5.500;2022-09-09T09:13:15;99967.91;;;17.60
59339;BMP280;45117;50.960;5.500;2022-09-09T09:15:44;99968.72;;;17.66
59339;BMP280;45117;50.960;5.500;2022-09-09T09:18:13;99970.69;;;17.65
59339;BMP280;45117;50.960;5.500;2022-09-09T09:20:57;99965.34;;;17.56
59339;BMP280;45117;50.960;5.500;2022-09-09T09:23:26;99975.97;;;17.69
59339;BMP280;45117;50.960;5.500;2022-09-09T09:25:59;99981.19;;;17.72
59339;BMP280;45117;50.960;5.500;2022-09-09T09:28:29;99959.03;;;17.89
59339;BMP280;45117;50.960;5.500;2022-09-09T09:30:59;99971.41;;;18.04
59339;BMP280;45117;50.960;5.500;2022-09-09T09:33:32;99965.31;;;18.09
59339;BMP280;45117;50.960;5.500;2022-09-09T09:36:00;99966.81;;;17.96
59339;BMP280;45117;50.960;5.500;2022-09-09T09:38:28;99972.03;;;17.99
59339;BMP280;45117;50.960;5.500;2022-09-09T09:40:56;99982.00;;;17.88
59339;BMP280;45117;50.960;5.500;2022-09-09T09:43:26;99977.28;;;17.73
59339;BMP280;45117;50.960;5.500;2022-09-09T09:45:53;99982.78;;;17.50
59339;BMP280;45117;50.960;5.500;2022-09-09T09:48:21;99979.41;;;17.55
59339;BMP280;45117;50.960;5.500;2022-09-09T09:50:50;99981.94;;;17.58
59339;BMP280;45117;50.960;5.500;2022-09-09T09:53:22;99986.22;;;17.50
59339;BMP280;45117;50.960;5.500;2022-09-09T09:55:55;99981.25;;;17.48
59339;BMP280;45117;50.960;5.500;2022-09-09T09:58:23;99973.97;;;17.55
59339;BMP280;45117;50.960;5.500;2022-09-09T10:00:52;99972.72;;;17.41
59339;BMP280;45117;50.960;5.500;2022-09-09T10:03:23;99978.13;;;17.41
59339;BMP280;45117;50.960;5.500;2022-09-09T10:05:51;99967.66;;;17.48
59339;BMP280;45117;50.960;5.500;2022-09-09T10:08:18;99973.47;;;17.41
59339;BMP280;45117;50.960;5.500;2022-09-09T10:10:53;99973.72;;;17.67
59339;BMP280;45117;50.960;5.500;2022-09-09T10:13:27;99971.97;;;17.79
59339;BMP280;45117;50.960;5.500;2022-09-09T10:16:10;99972.97;;;17.82
59339;BMP280;45117;50.960;5.500;2022-09-09T10:18:50;99960.59;;;17.81
59339;BMP280;45117;50.960;5.500;2022-09-09T10:21:36;99973.53;;;17.71
59339;BMP280;45117;50.960;5.500;2022-09-09T10:26:58;99963.28;;;17.66
59339;BMP280;45117;50.960;5.500;2022-09-09T10:29:40;99963.19;;;17.60
59339;BMP280;45117;50.960;5.500;2022-09-09T10:32:26;99972.59;;;17.59
59339;BMP280;45117;50.960;5.500;2022-09-09T10:34:58;99973.06;;;17.58
59339;BMP280;45117;50.960;5.500;2022-09-09T10:37:41;99982.47;;;17.47
59339;BMP280;45117;50.960;5.500;2022-09-09T10:40:23;99978.72;;;17.45
59339;BMP280;45117;50.960;5.500;2022-09-09T10:42:52;99988.34;;;17.22
59339;BMP280;45117;50.960;5.500;2022-09-09T10:45:28;99990.81;;;17.20
59339;BMP280;45117;50.960;5.500;2022-09-09T10:48:13;99998.38;;;17.07
59339;BMP280;45117;50.960;5.500;2022-09-09T10:50:55;99996.88;;;17.06
59339;BMP280;45117;50.960;5.500;2022-09-09T10:53:32;99995.72;;;16.98
59339;BMP280;45117;50.960;5.500;2022-09-09T10:56:04;99994.78;;;17.10
59339;BMP280;45117;50.960;5.500;2022-09-09T10:58:36;99995.25;;;17.08
59339;BMP280;45117;50.960;5.500;2022-09-09T11:01:11;99994.78;;;17.10
59339;BMP280;45117;50.960;5.500;2022-09-09T11:03:41;99995.56;;;17.25
59339;BMP280;45117;50.960;5.500;2022-09-09T11:06:14;99992.19;;;17.39
59339;BMP280;45117;50.960;5.500;2022-09-09T11:08:43;99993.00;;;17.69
59339;BMP280;45117;50.960;5.500;2022-09-09T11:11:14;99992.53;;;17.71
59339;BMP280;45117;50.960;5.500;2022-09-09T11:13:47;99996.47;;;17.99
59339;BMP280;45117;50.960;5.500;2022-09-09T11:16:22;99996.59;;;18.20
59339;BMP280;45117;50.960;5.500;2022-09-09T11:18:55;99991.56;;;18.13
59339;BMP280;45117;50.960;5.500;2022-09-09T11:21:28;99993.59;;;18.32
59339;BMP280;45117;50.960;5.500;2022-09-09T11:23:59;99995.66;;;18.23
59339;BMP280;45117;50.960;5.500;2022-09-09T11:26:31;99984.59;;;18.12
59339;BMP280;45117;50.960;5.500;2022-09-09T11:32:15;99994.16;;;18.36
59339;BMP280;45117;50.960;5.500;2022-09-09T11:34:56;99992.44;;;18.54
59339;BMP280;45117;50.960;5.500;2022-09-09T11:37:49;99988.75;;;18.92
59339;BMP280;45117;50.960;5.500;2022-09-09T11:40:22;99983.97;;;19.22
59339;BMP280;45117;50.960;5.500;2022-09-09T11:43:01;99982.56;;;19.12
59339;BMP280;45117;50.960;5.500;2022-09-09T11:45:31;99985.06;;;19.10
59339;BMP280;45117;50.960;5.500;2022-09-09T11:48:01;99985.31;;;18.91
59339;BMP280;45117;50.960;5.500;2022-09-09T11:50:33;99993.91;;;19.04
59339;BMP280;45117;50.960;5.500;2022-09-09T11:53:17;99978.31;;;19.05
59339;BMP280;45117;50.960;5.500;2022-09-09T11:55:46;99984.91;;;18.98
59339;BMP280;45117;50.960;5.500;2022-09-09T11:58:17;99986.94;;;19.24
59339;BMP280;45117;50.960;5.500;2022-09-09T12:00:45;99978.44;;;19.36
59339;BMP280;45117;50.960;5.500;2022-09-09T12:03:34;99980.81;;;19.29
59339;BMP280;45117;50.960;5.500;2022-09-09T12:06:14;99980.56;;;19.27
59339;BMP280;45117;50.960;5.500;2022-09-09T12:08:45;99979.47;;;19.19
59339;BMP280;45117;50.960;5.500;2022-09-09T12:11:24;99977.53;;;19.25
59339;BMP280;45117;50.960;5.500;2022-09-09T12:13:52;99977.78;;;19.21
59339;BMP280;45117;50.960;5.500;2022-09-09T12:16:29;99977.78;;;19.01
59339;BMP280;45117;50.960;5.500;2022-09-09T12:19:04;99982.44;;;18.80
59339;BMP280;45117;50.960;5.500;2022-09-09T12:21:35;99998.41;;;18.58
59339;BMP280;45117;50.960;5.500;2022-09-09T12:24:07;99990.50;;;18.39
59339;BMP280;45117;50.960;5.500;2022-09-09T12:26:37;99995.03;;;18.13
59339;BMP280;45117;50.960;5.500;2022-09-09T12:29:16;100010.66;;;18.03
59339;BMP280;45117;50.960;5.500;2022-09-09T12:31:50;100015.19;;;17.83
59339;BMP280;45117;50.960;5.500;2022-09-09T12:34:27;100008.34;;;17.58
59339;BMP280;45117;50.960;5.500;2022-09-09T12:37:00;100005.31;;;17.32
59339;BMP280;45117;50.960;5.500;2022-09-09T12:39:33;99998.34;;;17.16
59339;BMP280;45117;50.960;5.500;2022-09-09T12:42:01;99995.19;;;17.17
59339;BMP280;45117;50.960;5.500;2022-09-09T12:44:29;99986.53;;;17.04
59339;BMP280;45117;50.960;5.500;2022-09-09T12:47:01;99996.31;;;17.02
59339;BMP280;45117;50.960;5.500;2022-09-09T12:49:31;99997.22;;;16.99
59339;BMP280;45117;50.960;5.500;2022-09-09T12:52:01;99997.56;;;16.92
59339;BMP280;45117;50.960;5.500;2022-09-09T12:54:33;99991.31;;;17.09
59339;BMP280;45117;50.960;5.500;2022-09-09T12:56:59;99982.47;;;17.24
59339;BMP280;45117;50.960;5.500;2022-09-09T12:59:34;99983.09;;;17.81
59339;BMP280;45117;50.960;5.500;2022-09-09T13:02:01;99979.72;;;18.16
59339;BMP280;45117;50.960;5.500;2022-09-09T13:04:28;99983.72;;;18.64
59339;BMP280;45117;50.960;5.500;2022-09-09T13:07:05;99970.94;;;18.91
59339;BMP280;45117;50.960;5.500;2022-09-09T13:09:33;99975.56;;;19.25
59339;BMP280;45117;50.960;5.500;2022-09-09T13:12:00;99973.47;;;19.35
59339;BMP280;45117;50.960;5.500;2022-09-09T13:14:30;99971.69;;;19.32
59339;BMP280;45117;50.960;5.500;2022-09-09T13:17:01;99972.78;;;19.40
59339;BMP280;45117;50.960;5.500;2022-09-09T13:19:32;99976.19;;;19.55
59339;BMP280;45117;50.960;5.500;2022-09-09T13:22:11;99964.03;;;19.56
59339;BMP280;45117;50.960;5.500;2022-09-09T13:24:39;99966.50;;;19.80
59339;BMP280;45117;50.960;5.500;2022-09-09T13:27:24;99968.75;;;19.82
59339;BMP280;45117;50.960;5.500;2022-09-09T13:29:53;99960.63;;;20.19
59339;BMP280;45117;50.960;5.500;2022-09-09T13:32:23;99962.25;;;20.85
59339;BMP280;45117;50.960;5.500;2022-09-09T13:34:54;99961.25;;;20.88
59339;BMP280;45117;50.960;5.500;2022-09-09T13:37:27;99959.53;;;20.90
59339;BMP280;45117;50.960;5.500;2022-09-09T13:39:57;99957.06;;;20.98
59339;BMP280;45117;50.960;5.500;2022-09-09T13:42:29;99961.28;;;20.93
59339;BMP280;45117;50.960;5.500;2022-09-09T13:44:58;99950.06;;;20.80
59339;BMP280;45117;50.960;5.500;2022-09-09T13:47:29;99948.31;;;20.83
59339;BMP280;45117;50.960;5.500;2022-09-09T13:49:56;99952.09;;;20.96
59339;BMP280;45117;50.960;5.500;2022-09-09T13:52:23;99953.25;;;20.79
59339;BMP280;45117;50.960;5.500;2022-09-09T13:54:52;99942.50;;;21.35
59339;BMP280;45117;50.960;5.500;2022-09-09T13:57:21;99940.06;;;21.42
59339;BMP280;45117;50.960;5.500;2022-09-09T13:59:49;99949.97;;;21.40
59339;BMP280;45117;50.960;5.500;2022-09-09T14:02:16;99934.31;;;21.23
59339;BMP280;45117;50.960;5.500;2022-09-09T14:04:42;99936.31;;;21.28
59339;BMP280;45117;50.960;5.500;2022-09-09T14:07:11;99939.81;;;21.46
59339;BMP280;45117;50.960;5.500;2022-09-09T14:09:38;99941.78;;;21.28
59339;BMP280;45117;50.960;5.500;2022-09-09T14:12:05;99947.47;;;21.19
59339;BMP280;45117;50.960;5.500;2022-09-09T14:14:35;99945.22;;;21.35
59339;BMP280;45117;50.960;5.500;2022-09-09T14:17:02;99949.53;;;21.58
59339;BMP280;45117;50.960;5.500;2022-09-09T14:19:29;99945.56;;;21.81
59339;BMP280;45117;50.960;5.500;2022-09-09T14:21:56;99951.25;;;21.72
59339;BMP280;45117;50.960;5.500;2022-09-09T14:24:22;99938.06;;;21.37
59339;BMP280;45117;50.960;5.500;2022-09-09T14:26:50;99945.75;;;21.27
59339;BMP280;45117;50.960;5.500;2022-09-09T14:29:16;99953.84;;;21.00
59339;BMP280;45117;50.960;5.500;2022-09-09T14:31:44;99933.97;;;20.93
59339;BMP280;45117;50.960;5.500;2022-09-09T14:34:11;99936.00;;;21.04